createdAt,value
2022-11-08T00:00:57.813Z,84.92
2022-11-08T00:03:25.446Z,85.07
2022-11-08T00:06:14.740Z,85.21
2022-11-08T00:09:00.913Z,85.03
2022-11-08T00:11:47.353Z,85.23
2022-11-08T00:14:14.964Z,85.01
2022-11-08T00:16:42.587Z,86.33
2022-11-08T00:19:10.234Z,86.42
2022-11-08T00:21:37.831Z,86.34
2022-11-08T00:24:05.741Z,86.47
2022-11-08T00:26:33.388Z,86.56
2022-11-08T00:29:01.160Z,86.68
2022-11-08T00:31:28.819Z,86.55
2022-11-08T00:33:56.805Z,86.66
2022-11-08T00:36:24.432Z,86.91
2022-11-08T00:38:52.093Z,86.80
2022-11-08T00:41:19.678Z,86.53
2022-11-08T00:43:47.409Z,86.75
2022-11-08T00:46:15.000Z,86.62
2022-11-08T00:48:42.599Z,87.06
2022-11-08T00:51:12.690Z,87.48
2022-11-08T00:53:41.498Z,87.50
2022-11-08T00:56:12.886Z,87.48
2022-11-08T00:58:42.516Z,87.57
2022-11-08T01:01:15.806Z,87.47
2022-11-08T01:03:44.053Z,87.88
2022-11-08T01:06:13.747Z,87.96
2022-11-08T01:08:41.561Z,87.98
2022-11-08T01:11:13.540Z,88.24
2022-11-08T01:13:41.398Z,87.90
2022-11-08T01:16:10.660Z,88.48
2022-11-08T01:18:38.771Z,88.33
2022-11-08T01:21:07.012Z,88.02
2022-11-08T01:23:35.557Z,88.07
2022-11-08T01:26:06.797Z,88.73
2022-11-08T01:28:35.889Z,88.74
2022-11-08T01:31:27.374Z,88.79
2022-11-08T01:33:55.323Z,88.40
2022-11-08T01:36:25.657Z,90.32
2022-11-08T01:38:55.020Z,90.10
2022-11-08T01:41:25.072Z,90.08
2022-11-08T01:43:54.939Z,90.00
2022-11-08T01:46:40.546Z,90.60
2022-11-08T01:49:45.732Z,90.90
2022-11-08T01:52:28.799Z,91.33
2022-11-08T01:55:16.667Z,92.23
2022-11-08T01:58:16.765Z,93.63
2022-11-08T02:00:44.762Z,92.57
2022-11-08T02:03:16.456Z,92.57
2022-11-08T02:05:44.259Z,92.30
2022-11-08T02:08:28.301Z,94.67
2022-11-08T02:10:56.091Z,93.94
2022-11-08T02:13:27.413Z,93.61
2022-11-08T02:15:55.278Z,93.51
2022-11-08T02:18:27.393Z,94.86
2022-11-08T02:21:23.987Z,94.86
2022-11-08T02:23:53.657Z,95.94
2022-11-08T02:26:26.978Z,96.02
2022-11-08T02:28:54.859Z,96.27
2022-11-08T02:31:22.574Z,95.54
2022-11-08T02:33:50.953Z,95.59
2022-11-08T02:36:22.466Z,95.71
2022-11-08T02:38:56.307Z,96.25
2022-11-08T02:41:23.898Z,95.88
2022-11-08T02:43:51.510Z,96.63
2022-11-08T02:46:19.308Z,96.40
2022-11-08T02:48:46.941Z,96.93
2022-11-08T02:51:14.590Z,96.45
2022-11-08T02:53:42.273Z,97.28
2022-11-08T02:56:09.968Z,97.12
2022-11-08T02:58:37.742Z,96.70
2022-11-08T03:01:05.377Z,96.67
2022-11-08T03:03:32.978Z,96.83
2022-11-08T03:06:00.624Z,97.22
2022-11-08T03:08:28.226Z,96.91
2022-11-08T03:10:55.801Z,96.80
2022-11-08T03:13:23.397Z,96.71
2022-11-08T03:15:51.000Z,97.62
2022-11-08T03:18:19.201Z,97.26
2022-11-08T03:20:47.091Z,97.87
2022-11-08T03:23:14.770Z,97.62
2022-11-08T03:25:42.371Z,97.95
2022-11-08T03:28:10.444Z,98.00
2022-11-08T03:30:38.540Z,97.71
2022-11-08T03:33:06.175Z,97.61
2022-11-08T03:35:33.814Z,97.69
2022-11-08T03:38:01.425Z,98.47
2022-11-08T03:40:29.496Z,98.39
2022-11-08T03:43:00.904Z,98.42
2022-11-08T03:45:28.506Z,98.31
2022-11-08T03:47:56.152Z,98.27
2022-11-08T03:50:24.079Z,98.55
2022-11-08T03:52:53.946Z,98.48
2022-11-08T03:55:24.241Z,97.93
2022-11-08T03:57:52.610Z,98.70
2022-11-08T04:00:27.115Z,98.73
2022-11-08T04:02:56.426Z,99.00
2022-11-08T04:05:24.087Z,99.07
2022-11-08T04:07:51.745Z,99.33
2022-11-08T04:10:19.480Z,99.97
2022-11-08T04:13:06.033Z,100.00
2022-11-08T04:15:33.680Z,100.00
2022-11-08T04:18:24.452Z,100.00
2022-11-08T04:21:11.123Z,100.00
2022-11-08T04:23:39.122Z,100.00
2022-11-08T04:26:09.208Z,100.00
2022-11-08T04:28:38.340Z,100.00
2022-11-08T04:31:13.724Z,100.00
2022-11-08T04:33:42.082Z,99.97
2022-11-08T04:36:16.192Z,99.88
2022-11-08T04:38:43.903Z,100.00
2022-11-08T04:41:14.454Z,100.00
2022-11-08T04:43:42.629Z,100.00
2022-11-08T04:46:12.757Z,100.00
2022-11-08T04:48:41.090Z,100.00
2022-11-08T04:51:13.132Z,100.00
2022-11-08T04:53:41.879Z,100.00
2022-11-08T04:56:12.931Z,100.00
2022-11-08T04:58:42.969Z,100.00
2022-11-08T05:01:12.824Z,99.95
2022-11-08T05:03:40.597Z,100.00
2022-11-08T05:06:21.155Z,99.82
2022-11-08T05:08:48.968Z,100.00
2022-11-08T05:11:22.117Z,100.00
2022-11-08T05:13:51.147Z,99.75
2022-11-08T05:16:21.128Z,100.00
2022-11-08T05:18:49.113Z,100.00
2022-11-08T05:21:37.245Z,100.00
2022-11-08T05:24:07.073Z,100.00
2022-11-08T05:26:36.809Z,100.00
2022-11-08T05:29:05.213Z,100.00
2022-11-08T05:31:33.329Z,100.00
2022-11-08T05:34:01.843Z,100.00
2022-11-08T05:36:30.196Z,100.00
2022-11-08T05:38:57.830Z,100.00
2022-11-08T05:41:26.971Z,100.00
2022-11-08T05:43:56.403Z,100.00
2022-11-08T05:46:24.744Z,100.00
2022-11-08T05:48:53.159Z,100.00
2022-11-08T05:51:21.778Z,100.00
2022-11-08T05:53:49.870Z,100.00
2022-11-08T05:56:18.375Z,100.00
2022-11-08T05:58:46.670Z,100.00
2022-11-08T06:01:17.325Z,100.00
2022-11-08T06:03:45.453Z,100.00
2022-11-08T06:06:21.441Z,100.00
2022-11-08T06:08:51.716Z,100.00
2022-11-08T06:11:26.315Z,100.00
2022-11-08T06:13:55.597Z,100.00
2022-11-08T06:16:25.372Z,100.00
2022-11-08T06:18:53.152Z,100.00
2022-11-08T06:21:22.456Z,100.00
2022-11-08T06:23:53.549Z,100.00
2022-11-08T06:26:22.062Z,100.00
2022-11-08T06:28:49.713Z,99.78
2022-11-08T06:31:17.360Z,99.83
2022-11-08T06:33:44.969Z,99.74
2022-11-08T06:36:12.615Z,99.67
2022-11-08T06:38:40.241Z,99.53
2022-11-08T06:41:07.837Z,99.75
2022-11-08T06:43:35.840Z,99.72
2022-11-08T06:46:03.896Z,99.68
2022-11-08T06:48:35.775Z,99.40
2022-11-08T06:51:04.504Z,99.82
2022-11-08T06:53:32.692Z,99.46
2022-11-08T06:56:03.437Z,99.58
2022-11-08T06:58:31.861Z,99.44
2022-11-08T07:01:03.282Z,99.44
2022-11-08T07:03:30.886Z,99.34
2022-11-08T07:05:58.598Z,99.34
2022-11-08T07:08:26.260Z,99.48
2022-11-08T07:10:55.482Z,99.38
2022-11-08T07:13:23.186Z,100.00
2022-11-08T07:15:51.083Z,99.78
2022-11-08T07:18:21.237Z,100.00
2022-11-08T07:20:49.105Z,100.00
2022-11-08T07:23:16.886Z,100.00
2022-11-08T07:25:44.793Z,100.00
2022-11-08T07:28:20.385Z,100.00
2022-11-08T07:30:49.843Z,99.84
2022-11-08T07:33:18.208Z,99.83
2022-11-08T07:35:48.397Z,99.61
2022-11-08T07:38:16.379Z,99.80
2022-11-08T07:40:44.316Z,99.56
2022-11-08T07:43:13.085Z,99.64
2022-11-08T07:45:42.283Z,100.00
2022-11-08T07:48:13.212Z,100.00
2022-11-08T07:50:43.221Z,99.94
2022-11-08T07:53:11.865Z,100.00
2022-11-08T07:55:42.800Z,99.78
2022-11-08T07:58:11.837Z,99.89
2022-11-08T08:00:41.528Z,100.00
2022-11-08T08:03:11.774Z,99.99
2022-11-08T08:05:42.648Z,99.76
2022-11-08T08:08:12.176Z,99.94
2022-11-08T08:10:40.488Z,99.85
2022-11-08T08:13:08.550Z,99.94
2022-11-08T08:15:36.350Z,99.58
2022-11-08T08:18:06.406Z,99.57
2022-11-08T08:20:34.708Z,99.17
2022-11-08T08:23:02.698Z,98.95
2022-11-08T08:25:32.126Z,98.85
2022-11-08T08:28:02.105Z,98.78
2022-11-08T08:30:31.908Z,98.62
2022-11-08T08:33:27.849Z,98.63
2022-11-08T08:36:02.001Z,98.33
2022-11-08T08:38:31.159Z,97.69
2022-11-08T08:40:59.654Z,97.93
2022-11-08T08:43:30.773Z,97.70
2022-11-08T08:46:02.819Z,97.50
2022-11-08T08:48:30.686Z,97.55
2022-11-08T08:50:58.493Z,97.69
2022-11-08T08:53:26.464Z,97.21
2022-11-08T08:55:54.071Z,97.21
2022-11-08T08:58:22.583Z,96.16
2022-11-08T09:03:38.588Z,95.59
2022-11-08T09:06:06.289Z,95.65
2022-11-08T09:08:33.908Z,94.90
2022-11-08T09:11:02.795Z,94.00
2022-11-08T09:13:34.153Z,94.67
2022-11-08T09:16:04.005Z,94.87
2022-11-08T09:18:32.728Z,94.68
2022-11-08T09:21:01.264Z,94.34
2022-11-08T09:23:28.907Z,94.16
2022-11-08T09:26:05.709Z,93.98
2022-11-08T09:28:35.890Z,94.39
2022-11-08T09:31:10.183Z,94.30
2022-11-08T09:33:40.064Z,94.29
2022-11-08T09:36:09.218Z,94.15
2022-11-08T09:38:36.836Z,93.67
2022-11-08T09:41:23.587Z,93.82
2022-11-08T09:43:54.292Z,93.62
2022-11-08T09:46:53.028Z,93.05
2022-11-08T09:49:30.666Z,93.10
2022-11-08T09:52:00.603Z,93.11
2022-11-08T09:54:36.023Z,92.98
2022-11-08T09:57:06.782Z,92.95
2022-11-08T09:59:49.174Z,92.73
2022-11-08T10:02:23.864Z,92.70
2022-11-08T10:05:01.124Z,92.69
2022-11-08T10:07:31.760Z,92.61
2022-11-08T10:10:18.116Z,92.03
2022-11-08T10:12:57.348Z,91.43
2022-11-08T10:15:37.072Z,89.80
2022-11-08T10:18:18.905Z,89.26
2022-11-08T10:21:09.463Z,88.97
2022-11-08T10:23:52.517Z,88.53
2022-11-08T10:26:26.917Z,87.36
2022-11-08T10:29:00.173Z,88.09
2022-11-08T10:31:34.043Z,88.06
2022-11-08T10:34:04.772Z,87.48
2022-11-08T10:36:41.861Z,87.37
2022-11-08T10:39:11.967Z,85.77
2022-11-08T10:42:02.567Z,86.41
2022-11-08T10:44:30.559Z,84.19
2022-11-08T10:46:58.124Z,84.56
2022-11-08T10:49:29.039Z,84.35
2022-11-08T10:52:17.240Z,83.61
2022-11-08T10:54:47.860Z,83.55
2022-11-08T10:57:32.526Z,82.27
2022-11-08T11:00:29.233Z,81.60
2022-11-08T11:02:59.212Z,81.50
2022-11-08T11:05:32.018Z,82.04
2022-11-08T11:08:02.525Z,82.16
2022-11-08T11:10:34.697Z,81.45
2022-11-08T11:13:23.887Z,81.21
2022-11-08T11:15:57.221Z,81.29
2022-11-08T11:18:32.536Z,80.69
2022-11-08T11:21:01.634Z,80.81
2022-11-08T11:23:47.557Z,80.70
2022-11-08T11:26:30.960Z,79.56
2022-11-08T11:29:07.996Z,79.94
2022-11-08T11:31:41.303Z,79.26
2022-11-08T11:34:18.227Z,79.23
2022-11-08T11:37:10.381Z,79.03
2022-11-08T11:39:45.448Z,78.36
2022-11-08T11:42:50.631Z,78.76
2022-11-08T11:45:37.577Z,77.99
2022-11-08T11:48:28.153Z,77.39
2022-11-08T11:50:57.200Z,77.57
2022-11-08T11:53:43.548Z,77.99
2022-11-08T11:56:19.591Z,77.81
2022-11-08T11:59:05.480Z,77.24
2022-11-08T12:01:51.813Z,76.94
2022-11-08T12:04:41.118Z,76.84
2022-11-08T12:07:17.891Z,76.67
2022-11-08T12:09:54.794Z,76.55
2022-11-08T12:12:49.928Z,76.17
2022-11-08T12:15:35.918Z,75.66
2022-11-08T12:18:41.644Z,75.66
2022-11-08T12:22:20.838Z,75.81
2022-11-08T12:24:50.947Z,76.89
2022-11-08T12:27:27.275Z,76.92
2022-11-08T12:30:09.623Z,76.01
2022-11-08T12:32:46.999Z,76.70
2022-11-08T12:35:30.691Z,75.39
2022-11-08T12:38:05.048Z,75.29
2022-11-08T12:40:50.060Z,75.26
2022-11-08T12:43:38.889Z,75.44
2022-11-08T12:46:17.584Z,75.29
2022-11-08T12:49:06.522Z,75.24
2022-11-08T12:51:53.680Z,74.39
2022-11-08T12:54:24.441Z,74.81
2022-11-08T12:56:56.210Z,74.13
2022-11-08T12:59:29.804Z,74.87
2022-11-08T13:01:58.475Z,74.54
2022-11-08T13:04:58.397Z,75.19
2022-11-08T13:07:45.724Z,74.56
2022-11-08T13:10:31.403Z,74.96
2022-11-08T13:13:17.499Z,74.64
2022-11-08T13:16:10.377Z,74.77
2022-11-08T13:18:49.000Z,74.81
2022-11-08T13:21:28.759Z,74.54
2022-11-08T13:24:45.761Z,74.38
2022-11-08T13:27:24.129Z,74.86
2022-11-08T13:29:53.812Z,74.67
2022-11-08T13:32:33.519Z,74.79
2022-11-08T13:35:21.428Z,75.32
2022-11-08T13:38:34.125Z,75.71
2022-11-08T13:41:15.685Z,73.88
2022-11-08T13:43:43.837Z,74.49
2022-11-08T13:46:30.651Z,75.16
2022-11-08T13:49:19.326Z,75.76
2022-11-08T13:51:47.525Z,74.72
2022-11-08T13:54:24.235Z,75.06
2022-11-08T13:57:03.260Z,74.43
2022-11-08T13:59:33.996Z,74.71
2022-11-08T14:02:06.604Z,74.66
2022-11-08T14:04:39.805Z,74.32
2022-11-08T14:07:24.798Z,74.06
2022-11-08T14:10:02.455Z,74.14
2022-11-08T14:13:05.524Z,73.34
2022-11-08T14:16:08.295Z,72.54
2022-11-08T14:18:40.191Z,72.59
2022-11-08T14:21:08.374Z,73.35
2022-11-08T14:23:41.030Z,72.71
2022-11-08T14:26:16.398Z,72.89
2022-11-08T14:28:46.333Z,72.48
2022-11-08T14:31:32.416Z,72.97
2022-11-08T14:34:02.199Z,73.15
2022-11-08T14:36:32.831Z,73.30
2022-11-08T14:39:10.511Z,73.26
2022-11-08T14:41:38.501Z,73.48
2022-11-08T14:44:06.711Z,74.10
2022-11-08T14:46:41.069Z,74.23
2022-11-08T14:49:11.580Z,74.34
2022-11-08T14:51:39.423Z,74.98
2022-11-08T14:54:27.721Z,75.37
2022-11-08T14:56:57.048Z,76.31
2022-11-08T14:59:25.920Z,75.63
2022-11-08T15:01:53.786Z,76.12
2022-11-08T15:04:23.997Z,76.06
2022-11-08T15:06:54.702Z,75.86
2022-11-08T15:09:32.068Z,76.24
2022-11-08T15:12:02.679Z,77.02
2022-11-08T15:14:34.644Z,77.00
2022-11-08T15:17:03.561Z,77.17
2022-11-08T15:19:41.310Z,77.07
2022-11-08T15:22:31.453Z,76.78
2022-11-08T15:25:21.631Z,77.06
2022-11-08T15:27:53.550Z,78.07
2022-11-08T15:30:39.568Z,78.16
2022-11-08T15:33:07.709Z,78.87
2022-11-08T15:35:39.498Z,78.88
2022-11-08T15:38:27.415Z,78.87
2022-11-08T15:40:58.903Z,79.65
2022-11-08T15:43:32.616Z,79.46
2022-11-08T15:46:02.037Z,79.64
2022-11-08T15:48:30.582Z,80.33
2022-11-08T15:50:59.703Z,80.21
2022-11-08T15:53:28.598Z,80.61
2022-11-08T15:55:59.975Z,80.62
2022-11-08T15:58:30.088Z,81.43
2022-11-08T16:00:59.789Z,81.51
2022-11-08T16:03:27.583Z,81.52
2022-11-08T16:05:55.298Z,81.83
2022-11-08T16:08:23.443Z,81.97
2022-11-08T16:10:54.096Z,82.01
2022-11-08T16:13:24.152Z,82.26
2022-11-08T16:15:51.857Z,82.91
2022-11-08T16:18:21.132Z,82.82
2022-11-08T16:20:49.269Z,82.87
2022-11-08T16:23:17.168Z,83.21
2022-11-08T16:25:53.412Z,83.48
2022-11-08T16:28:29.925Z,84.29
2022-11-08T16:30:58.484Z,84.17
2022-11-08T16:33:27.941Z,83.84
2022-11-08T16:35:57.281Z,84.27
2022-11-08T16:38:36.101Z,84.01
2022-11-08T16:41:05.489Z,82.86
2022-11-08T16:43:33.658Z,82.89
2022-11-08T16:46:06.868Z,82.67
2022-11-08T16:48:37.569Z,82.62
2022-11-08T16:51:07.543Z,82.73
2022-11-08T16:53:36.256Z,82.80
2022-11-08T16:56:03.943Z,82.90
2022-11-08T16:58:31.548Z,83.21
2022-11-08T17:00:59.366Z,83.47
2022-11-08T17:03:30.599Z,83.69
2022-11-08T17:05:58.968Z,83.90
2022-11-08T17:08:27.178Z,84.08
2022-11-08T17:10:56.062Z,84.38
2022-11-08T17:13:23.875Z,84.62
2022-11-08T17:15:51.986Z,85.56
2022-11-08T17:18:22.279Z,86.11
2022-11-08T17:20:50.329Z,86.23
2022-11-08T17:23:18.805Z,85.70
2022-11-08T17:25:46.476Z,85.04
2022-11-08T17:28:14.252Z,84.57
2022-11-08T17:30:45.398Z,84.61
2022-11-08T17:33:14.426Z,84.42
2022-11-08T17:35:44.353Z,84.55
2022-11-08T17:38:30.181Z,84.47
2022-11-08T17:41:08.980Z,84.19
2022-11-08T17:43:37.038Z,84.47
2022-11-08T17:46:05.588Z,84.56
2022-11-08T17:48:34.156Z,84.94
2022-11-08T17:51:02.158Z,84.98
2022-11-08T17:53:30.203Z,85.14
2022-11-08T17:56:00.332Z,86.13
2022-11-08T17:58:29.219Z,85.84
2022-11-08T18:00:58.949Z,85.89
2022-11-08T18:03:27.846Z,86.16
2022-11-08T18:06:07.027Z,86.18
2022-11-08T18:08:36.813Z,86.62
2022-11-08T18:11:05.136Z,86.75
2022-11-08T18:13:33.593Z,86.79
2022-11-08T18:16:09.784Z,86.87
2022-11-08T18:18:37.948Z,86.77
2022-11-08T18:21:07.169Z,86.97
2022-11-08T18:23:34.952Z,86.93
2022-11-08T18:26:02.776Z,87.06
2022-11-08T18:28:30.518Z,86.85
2022-11-08T18:31:06.893Z,86.98
2022-11-08T18:33:35.140Z,87.08
2022-11-08T18:36:17.448Z,87.14
2022-11-08T18:38:46.829Z,87.16
2022-11-08T18:41:17.540Z,87.22
2022-11-08T18:43:45.911Z,87.30
2022-11-08T18:46:16.534Z,87.30
2022-11-08T18:48:44.328Z,87.23
2022-11-08T18:51:15.068Z,87.29
2022-11-08T18:53:43.137Z,87.18
2022-11-08T18:56:12.118Z,87.30
2022-11-08T18:58:40.527Z,87.43
2022-11-08T19:01:08.362Z,87.18
2022-11-08T19:03:36.643Z,87.25
2022-11-08T19:06:05.049Z,87.30
2022-11-08T19:08:33.618Z,87.33
2022-11-08T19:11:09.897Z,87.41
2022-11-08T19:13:39.780Z,87.67
2022-11-08T19:16:08.971Z,87.73
2022-11-08T19:18:37.271Z,87.75
2022-11-08T19:21:08.069Z,87.90
2022-11-08T19:23:36.576Z,87.76
2022-11-08T19:26:16.855Z,87.84
2022-11-08T19:28:48.783Z,87.92
2022-11-08T19:31:20.164Z,87.92
2022-11-08T19:33:49.179Z,87.78
2022-11-08T19:36:19.936Z,88.10
2022-11-08T19:38:48.002Z,88.24
2022-11-08T19:41:18.086Z,88.19
2022-11-08T19:43:46.900Z,88.54
2022-11-08T19:46:24.391Z,88.59
2022-11-08T19:48:53.445Z,88.73
2022-11-08T19:51:24.217Z,88.92
2022-11-08T19:53:57.684Z,88.64
2022-11-08T19:56:49.988Z,88.64
2022-11-08T19:59:14.157Z,88.69
2022-11-08T20:01:42.032Z,88.92
2022-11-08T20:04:11.835Z,88.60
2022-11-08T20:06:40.333Z,88.39
2022-11-08T20:09:10.388Z,88.78
2022-11-08T20:11:41.575Z,88.99
2022-11-08T20:14:12.034Z,88.80
2022-11-08T20:16:43.039Z,90.31
2022-11-08T20:19:14.478Z,89.71
2022-11-08T20:21:45.066Z,89.95
2022-11-08T20:24:13.555Z,90.15
2022-11-08T20:26:42.421Z,89.73
2022-11-08T20:29:10.458Z,91.21
2022-11-08T20:31:39.140Z,91.18
2022-11-08T20:34:09.811Z,91.12
2022-11-08T20:36:42.058Z,90.88
2022-11-08T20:39:14.614Z,90.72
2022-11-08T20:41:42.834Z,90.58
2022-11-08T20:44:11.451Z,90.78
2022-11-08T20:46:40.049Z,90.46
2022-11-08T20:49:07.687Z,90.66
2022-11-08T20:51:36.026Z,90.78
2022-11-08T20:54:03.755Z,90.92
2022-11-08T20:56:31.552Z,90.77
2022-11-08T20:58:59.248Z,90.58
2022-11-08T21:01:30.246Z,90.70
2022-11-08T21:03:58.032Z,90.31
2022-11-08T21:06:27.865Z,90.60
2022-11-08T21:09:02.702Z,90.39
2022-11-08T21:11:36.523Z,90.13
2022-11-08T21:14:05.298Z,90.04
2022-11-08T21:16:53.229Z,90.01
2022-11-08T21:19:21.160Z,90.13
2022-11-08T21:21:48.871Z,90.09
2022-11-08T21:24:18.145Z,90.10
2022-11-08T21:26:45.846Z,90.32
2022-11-08T21:29:13.491Z,90.29
2022-11-08T21:31:41.100Z,90.22
2022-11-08T21:34:09.759Z,90.20
2022-11-08T21:39:05.179Z,90.18
2022-11-08T21:41:33.198Z,90.49
2022-11-08T21:44:01.148Z,90.28
2022-11-08T21:46:28.976Z,90.36
2022-11-08T21:48:59.229Z,90.48
2022-11-08T21:51:27.818Z,90.37
2022-11-08T21:53:57.485Z,90.78
2022-11-08T21:56:27.065Z,90.60
2022-11-08T21:58:54.794Z,90.33
2022-11-08T22:01:28.595Z,90.45
2022-11-08T22:03:58.145Z,90.61
2022-11-08T22:06:26.111Z,90.77
2022-11-08T22:08:53.914Z,91.70
2022-11-08T22:11:21.570Z,91.61
2022-11-08T22:13:49.285Z,91.45
2022-11-08T22:16:16.983Z,92.21
2022-11-08T22:21:41.704Z,92.36
2022-11-08T22:24:26.666Z,92.26
2022-11-08T22:26:54.289Z,92.49
2022-11-08T22:29:21.939Z,93.82
2022-11-08T22:31:49.890Z,94.07
2022-11-08T22:34:17.713Z,93.84
2022-11-08T22:36:46.718Z,94.07
2022-11-08T22:39:16.074Z,94.52
2022-11-08T22:41:45.356Z,94.71
2022-11-08T22:44:13.958Z,94.06
2022-11-08T22:46:46.151Z,93.82
2022-11-08T22:49:14.547Z,94.19
2022-11-08T22:51:42.993Z,94.23
2022-11-08T22:54:11.172Z,93.97
2022-11-08T22:56:39.259Z,93.87
2022-11-08T22:59:06.961Z,93.83
2022-11-08T23:01:35.080Z,93.91
2022-11-08T23:04:02.758Z,93.64
2022-11-08T23:06:30.545Z,93.85
2022-11-08T23:08:58.792Z,93.53
2022-11-08T23:11:45.176Z,93.67
2022-11-08T23:14:36.848Z,93.45
2022-11-08T23:17:06.959Z,93.61
2022-11-08T23:19:53.457Z,93.82
2022-11-08T23:22:40.421Z,93.60
2022-11-08T23:25:08.364Z,93.52
2022-11-08T23:27:54.690Z,93.72
2022-11-08T23:30:41.488Z,93.63
2022-11-08T23:33:09.218Z,93.44
2022-11-08T23:35:36.920Z,93.23
2022-11-08T23:38:04.550Z,93.11
2022-11-08T23:40:51.165Z,93.33
2022-11-08T23:43:38.971Z,93.20
2022-11-08T23:46:12.486Z,93.04
2022-11-08T23:48:41.623Z,93.26
2022-11-08T23:51:09.697Z,93.46
2022-11-08T23:53:37.863Z,93.92
2022-11-08T23:56:06.273Z,95.61
2022-11-08T23:58:34.357Z,97.52
